createdAt,value
2017-03-16T00:00:01.402Z,63.42
2017-03-16T00:01:11.655Z,63.32
2017-03-16T00:02:21.592Z,63.32
2017-03-16T00:03:32.095Z,62.94
2017-03-16T00:04:42.353Z,62.94
2017-03-16T00:05:52.605Z,63.23
2017-03-16T00:07:02.855Z,63.6
2017-03-16T00:08:12.474Z,63.6
2017-03-16T00:09:22.767Z,63.42
2017-03-16T00:10:33.025Z,63.51
2017-03-16T00:11:42.968Z,63.7
2017-03-16T00:12:52.588Z,63.79
2017-03-16T00:14:02.832Z,64.07
2017-03-16T00:15:12.772Z,63.98
2017-03-16T00:16:23.026Z,64.17
2017-03-16T00:17:33.310Z,64.83
2017-03-16T00:18:43.247Z,64.26
2017-03-16T00:19:53.507Z,64.36
2017-03-16T00:21:03.757Z,64.55
2017-03-16T00:22:14.005Z,64.64
2017-03-16T00:23:24.257Z,64.55
2017-03-16T00:24:34.507Z,65.21
2017-03-16T00:25:44.755Z,65.02
2017-03-16T00:26:55.004Z,65.78
2017-03-16T00:28:05.254Z,66.44
2017-03-16T00:29:14.875Z,67.01
2017-03-16T00:30:24.818Z,67.93
2017-03-16T00:31:34.759Z,68.59
2017-03-16T00:32:45.004Z,69.34
2017-03-16T00:33:55.250Z,69.91
2017-03-16T00:35:05.184Z,71.04
2017-03-16T00:36:15.433Z,70.95
2017-03-16T00:37:25.374Z,71.71
2017-03-16T00:38:35.308Z,71.8
2017-03-16T00:39:45.552Z,71.99
2017-03-16T00:40:55.796Z,72.09
2017-03-16T00:42:05.735Z,71.14
2017-03-16T00:43:15.987Z,70.29
2017-03-16T00:44:26.238Z,70.1
2017-03-16T00:45:36.201Z,69.91
2017-03-16T00:46:46.451Z,69.53
2017-03-16T00:47:56.701Z,68.59
2017-03-16T00:49:06.943Z,68.21
2017-03-16T00:50:16.875Z,68.4
2017-03-16T00:51:26.496Z,67.74
2017-03-16T00:52:36.743Z,67.64
2017-03-16T00:53:46.675Z,67.93
2017-03-16T00:54:56.925Z,67.45
2017-03-16T00:56:07.171Z,67.26
2017-03-16T00:57:17.106Z,68.49
2017-03-16T00:58:27.357Z,69.91
2017-03-16T00:59:37.612Z,70.76
2017-03-16T01:00:47.868Z,70.57
2017-03-16T01:01:58.116Z,70.39
2017-03-16T01:03:08.048Z,70.2
2017-03-16T01:04:18.298Z,70.29
2017-03-16T01:05:28.552Z,69.72
2017-03-16T01:06:38.800Z,70.1
2017-03-16T01:07:49.049Z,70.76
2017-03-16T01:08:59.007Z,70.67
2017-03-16T01:10:09.254Z,71.33
2017-03-16T01:11:19.513Z,71.99
2017-03-16T01:12:29.771Z,70.86
2017-03-16T01:13:39.714Z,71.42
2017-03-16T01:14:49.964Z,72.09
2017-03-16T01:16:00.219Z,72.09
2017-03-16T01:17:10.158Z,73.13
2017-03-16T01:18:20.414Z,73.6
2017-03-16T01:19:30.667Z,73.32
2017-03-16T01:20:40.293Z,73.5
2017-03-16T01:21:50.550Z,73.03
2017-03-16T01:23:00.801Z,72.94
2017-03-16T01:24:11.058Z,73.5
2017-03-16T01:25:21.310Z,73.98
2017-03-16T01:26:31.560Z,73.22
2017-03-16T01:27:41.805Z,73.5
2017-03-16T01:28:52.056Z,73.32
2017-03-16T01:30:02.317Z,72.94
2017-03-16T01:31:11.942Z,71.99
2017-03-16T01:32:22.191Z,72.28
2017-03-16T01:33:32.442Z,71.61
2017-03-16T01:34:42.688Z,71.71
2017-03-16T01:35:52.946Z,71.71
2017-03-16T01:37:03.195Z,71.8
2017-03-16T01:38:13.132Z,71.8
2017-03-16T01:39:23.390Z,71.99
2017-03-16T01:40:33.637Z,71.8
2017-03-16T01:41:43.887Z,71.14
2017-03-16T01:42:54.148Z,71.33
2017-03-16T01:44:04.404Z,71.8
2017-03-16T01:45:14.341Z,72.37
2017-03-16T01:46:24.597Z,72.18
2017-03-16T01:47:34.851Z,72.18
2017-03-16T01:48:45.107Z,71.99
2017-03-16T01:49:55.045Z,71.71
2017-03-16T01:51:05.300Z,72.37
2017-03-16T01:52:14.933Z,71.99
2017-03-16T01:53:25.190Z,72.37
2017-03-16T01:54:35.441Z,72.18
2017-03-16T01:55:45.696Z,72.18
2017-03-16T01:56:55.943Z,72.75
2017-03-16T01:58:05.877Z,73.13
2017-03-16T01:59:16.132Z,73.5
2017-03-16T02:00:26.379Z,73.22
2017-03-16T02:01:36.317Z,73.5
2017-03-16T02:02:46.569Z,73.69
2017-03-16T02:03:56.837Z,73.41
2017-03-16T02:05:07.090Z,73.69
2017-03-16T02:06:17.028Z,73.79
2017-03-16T02:07:27.284Z,73.79
2017-03-16T02:08:37.533Z,73.6
2017-03-16T02:09:47.471Z,73.32
2017-03-16T02:10:57.718Z,73.03
2017-03-16T02:12:07.967Z,73.03
2017-03-16T02:13:18.225Z,72.75
2017-03-16T02:14:28.476Z,71.99
2017-03-16T02:15:38.794Z,72.09
2017-03-16T02:16:48.729Z,72.56
2017-03-16T02:17:58.666Z,72.09
2017-03-16T02:19:08.911Z,71.71
2017-03-16T02:20:19.166Z,71.42
2017-03-16T02:21:29.421Z,71.14
2017-03-16T02:22:39.674Z,70.67
2017-03-16T02:23:49.923Z,70.76
2017-03-16T02:25:00.169Z,70.67
2017-03-16T02:26:10.107Z,70.57
2017-03-16T02:27:20.352Z,70.86
2017-03-16T02:28:30.609Z,70.86
2017-03-16T02:29:40.542Z,70.76
2017-03-16T02:30:50.789Z,70.39
2017-03-16T02:32:01.045Z,70.76
2017-03-16T02:33:11.295Z,70.48
2017-03-16T02:34:21.550Z,71.04
2017-03-16T02:35:31.513Z,70.67
2017-03-16T02:36:41.448Z,70.67
2017-03-16T02:37:51.699Z,70.86
2017-03-16T02:39:01.953Z,70.48
2017-03-16T02:40:12.203Z,70.29
2017-03-16T02:41:22.456Z,70.76
2017-03-16T02:42:32.393Z,70.86
2017-03-16T02:43:42.640Z,71.42
2017-03-16T02:44:52.890Z,71.23
2017-03-16T02:46:02.834Z,71.8
2017-03-16T02:47:13.082Z,71.71
2017-03-16T02:48:23.329Z,71.99
2017-03-16T02:49:33.585Z,71.61
2017-03-16T02:50:43.839Z,71.14
2017-03-16T02:51:54.090Z,71.61
2017-03-16T02:53:04.373Z,71.71
2017-03-16T02:54:14.627Z,71.04
2017-03-16T02:55:24.876Z,71.23
2017-03-16T02:56:35.128Z,71.14
2017-03-16T02:57:45.387Z,71.61
2017-03-16T02:58:55.634Z,71.42
2017-03-16T03:00:05.571Z,70.86
2017-03-16T03:01:15.823Z,70.29
2017-03-16T03:02:26.081Z,70.29
2017-03-16T03:03:36.330Z,70.57
2017-03-16T03:04:46.272Z,70.95
2017-03-16T03:05:55.900Z,70.67
2017-03-16T03:07:06.148Z,71.23
2017-03-16T03:08:16.086Z,71.8
2017-03-16T03:09:26.342Z,72.37
2017-03-16T03:10:36.592Z,72.28
2017-03-16T03:11:46.839Z,71.61
2017-03-16T03:12:57.089Z,72.09
2017-03-16T03:14:07.029Z,72.28
2017-03-16T03:15:17.283Z,71.8
2017-03-16T03:16:27.216Z,72.09
2017-03-16T03:17:37.154Z,71.99
2017-03-16T03:18:47.407Z,72.09
2017-03-16T03:19:57.661Z,72.33
2017-03-16T03:21:07.600Z,72.94
2017-03-16T03:22:17.559Z,73.09
2017-03-16T03:23:27.814Z,73.18
2017-03-16T03:24:38.065Z,73.09
2017-03-16T03:25:48.317Z,73.18
2017-03-16T03:26:58.574Z,73.18
2017-03-16T03:28:08.823Z,73.28
2017-03-16T03:29:19.071Z,73.28
2017-03-16T03:30:29.318Z,73.56
2017-03-16T03:31:39.562Z,73.56
2017-03-16T03:32:49.804Z,73.37
2017-03-16T03:33:59.736Z,73.28
2017-03-16T03:35:10.015Z,74.22
2017-03-16T03:36:20.267Z,74.79
2017-03-16T03:37:30.517Z,74.88
2017-03-16T03:38:40.769Z,74.98
2017-03-16T03:39:50.711Z,74.32
2017-03-16T03:41:00.966Z,74.79
2017-03-16T03:42:10.910Z,75.07
2017-03-16T03:43:20.856Z,75.26
2017-03-16T03:44:29.855Z,75.64
2017-03-16T03:45:39.793Z,74.6
2017-03-16T03:46:50.045Z,75.55
2017-03-16T03:48:00.287Z,75.45
2017-03-16T03:49:10.538Z,75.26
2017-03-16T03:50:20.805Z,75.07
2017-03-16T03:51:30.424Z,75.07
2017-03-16T03:52:40.360Z,75.26
2017-03-16T03:53:50.604Z,74.88
2017-03-16T03:55:00.858Z,74.98
2017-03-16T03:56:10.803Z,75.26
2017-03-16T03:57:21.053Z,75.93
2017-03-16T03:58:30.987Z,75.93
2017-03-16T03:59:41.234Z,75.64
2017-03-16T04:00:51.481Z,75.74
2017-03-16T04:02:01.422Z,76.31
2017-03-16T04:03:11.667Z,75.64
2017-03-16T04:04:21.920Z,76.21
2017-03-16T04:05:32.174Z,76.02
2017-03-16T04:06:42.430Z,75.93
2017-03-16T04:07:52.686Z,75.83
2017-03-16T04:09:02.938Z,75.64
2017-03-16T04:10:13.192Z,75.55
2017-03-16T04:11:23.444Z,75.74
2017-03-16T04:12:33.384Z,75.17
2017-03-16T04:13:43.637Z,74.98
2017-03-16T04:14:53.887Z,75.26
2017-03-16T04:16:04.142Z,75.55
2017-03-16T04:17:14.079Z,75.83
2017-03-16T04:18:24.327Z,75.74
2017-03-16T04:19:34.265Z,75.83
2017-03-16T04:20:44.543Z,75.45
2017-03-16T04:21:54.804Z,75.26
2017-03-16T04:23:04.746Z,75.36
2017-03-16T04:24:15.007Z,75.26
2017-03-16T04:25:25.254Z,74.98
2017-03-16T04:26:35.506Z,75.07
2017-03-16T04:27:45.451Z,74.98
2017-03-16T04:28:55.734Z,75.45
2017-03-16T04:30:05.983Z,74.88
2017-03-16T04:31:15.604Z,74.88
2017-03-16T04:32:25.855Z,75.83
2017-03-16T04:33:35.487Z,74.98
2017-03-16T04:34:45.739Z,74.69
2017-03-16T04:35:55.683Z,73.85
2017-03-16T04:37:05.934Z,73.75
2017-03-16T04:38:16.189Z,74.6
2017-03-16T04:39:26.123Z,74.6
2017-03-16T04:40:36.375Z,74.93
2017-03-16T04:41:46.629Z,74.51
2017-03-16T04:42:56.575Z,74.17
2017-03-16T04:44:06.825Z,73.6
2017-03-16T04:45:17.082Z,72.99
2017-03-16T04:46:27.342Z,73.22
2017-03-16T04:47:37.595Z,72.94
2017-03-16T04:48:47.844Z,73.03
2017-03-16T04:49:57.784Z,72.09
2017-03-16T04:51:08.035Z,73.22
2017-03-16T04:52:18.284Z,72.18
2017-03-16T04:53:28.535Z,73.22
2017-03-16T04:54:38.469Z,72.09
2017-03-16T04:55:48.719Z,72.09
2017-03-16T04:56:58.660Z,72.18
2017-03-16T04:58:08.595Z,71.61
2017-03-16T04:59:18.841Z,71.8
2017-03-16T05:00:29.093Z,71.8
2017-03-16T05:01:39.028Z,72.18
2017-03-16T05:02:49.281Z,71.61
2017-03-16T05:03:59.532Z,71.04
2017-03-16T05:05:09.156Z,71.61
2017-03-16T05:06:19.092Z,71.52
2017-03-16T05:07:29.023Z,71.14
2017-03-16T05:08:39.283Z,71.14
2017-03-16T05:09:49.235Z,71.52
2017-03-16T05:10:59.489Z,71.23
2017-03-16T05:12:09.744Z,71.52
2017-03-16T05:13:19.373Z,71.14
2017-03-16T05:14:29.637Z,71.61
2017-03-16T05:15:39.575Z,70.95
2017-03-16T05:16:49.827Z,71.33
2017-03-16T05:17:59.452Z,71.23
2017-03-16T05:19:09.714Z,73.03
2017-03-16T05:20:19.975Z,74.17
2017-03-16T05:21:29.914Z,75.12
2017-03-16T05:22:39.538Z,75.12
2017-03-16T05:23:49.796Z,75.17
2017-03-16T05:24:59.749Z,75.02
2017-03-16T05:26:10.003Z,74.98
2017-03-16T05:27:19.318Z,74.79
2017-03-16T05:28:29.583Z,74.88
2017-03-16T05:29:39.843Z,75.07
2017-03-16T05:30:50.109Z,74.98
2017-03-16T05:32:00.361Z,74.98
2017-03-16T05:33:10.616Z,74.98
2017-03-16T05:34:20.557Z,74.98
2017-03-16T05:35:30.809Z,74.79
2017-03-16T05:36:40.754Z,74.6
2017-03-16T05:37:51.013Z,74.88
2017-03-16T05:39:01.268Z,74.98
2017-03-16T05:40:11.521Z,75.07
2017-03-16T05:41:21.771Z,75.36
2017-03-16T05:42:32.050Z,75.55
2017-03-16T05:43:42.304Z,76.31
2017-03-16T05:44:52.563Z,76.02
2017-03-16T05:46:02.498Z,76.5
2017-03-16T05:47:12.750Z,76.78
2017-03-16T05:48:23.012Z,76.21
2017-03-16T05:49:32.955Z,76.59
2017-03-16T05:50:43.217Z,76.68
2017-03-16T05:51:53.153Z,76.78
2017-03-16T05:53:03.096Z,77.63
2017-03-16T05:54:13.357Z,78.01
2017-03-16T05:55:23.610Z,77.63
2017-03-16T05:56:33.545Z,76.97
2017-03-16T05:57:43.795Z,76.59
2017-03-16T05:58:53.749Z,77.25
2017-03-16T06:00:04.003Z,77.06
2017-03-16T06:01:13.943Z,77.44
2017-03-16T06:02:24.202Z,78.1
2017-03-16T06:03:34.460Z,78.76
2017-03-16T06:04:44.398Z,78.86
2017-03-16T06:05:54.656Z,78.39
2017-03-16T06:07:04.910Z,78.1
2017-03-16T06:08:15.160Z,78.2
2017-03-16T06:09:25.422Z,78.2
2017-03-16T06:10:35.056Z,78.23
2017-03-16T06:11:45.308Z,77.76
2017-03-16T06:12:55.245Z,76.06
2017-03-16T06:14:05.505Z,76.34
2017-03-16T06:15:15.452Z,76.15
2017-03-16T06:16:25.389Z,76.34
2017-03-16T06:17:35.648Z,76.72
2017-03-16T06:18:45.911Z,76.63
2017-03-16T06:19:55.860Z,76.34
2017-03-16T06:21:06.127Z,76.44
2017-03-16T06:22:16.383Z,76.15
2017-03-16T06:23:26.644Z,76.44
2017-03-16T06:24:36.905Z,76.63
2017-03-16T06:25:47.153Z,76.72
2017-03-16T06:26:57.102Z,76.82
2017-03-16T06:28:07.362Z,77.29
2017-03-16T06:29:17.622Z,77.29
2017-03-16T06:30:27.577Z,78.05
2017-03-16T06:31:37.523Z,77.15
2017-03-16T06:32:47.774Z,77.06
2017-03-16T06:33:58.047Z,77.06
2017-03-16T06:35:07.983Z,76.87
2017-03-16T06:36:18.239Z,76.87
2017-03-16T06:37:28.178Z,76.4
2017-03-16T06:38:37.810Z,76.87
2017-03-16T06:39:48.070Z,76.78
2017-03-16T06:40:58.010Z,77.06
2017-03-16T06:42:08.270Z,76.97
2017-03-16T06:43:18.214Z,77.44
2017-03-16T06:44:28.160Z,77.44
2017-03-16T06:45:38.105Z,77.48
2017-03-16T06:46:48.048Z,77.39
2017-03-16T06:47:58.312Z,77.58
2017-03-16T06:49:08.569Z,77.86
2017-03-16T06:50:18.829Z,78.23
2017-03-16T06:51:29.082Z,78.14
2017-03-16T06:52:39.338Z,78.05
2017-03-16T06:53:49.599Z,78.23
2017-03-16T06:54:59.231Z,77.95
2017-03-16T06:56:09.510Z,78.14
2017-03-16T06:57:19.771Z,78.42
2017-03-16T06:58:29.713Z,78.9
2017-03-16T06:59:39.976Z,77.95
2017-03-16T07:00:50.236Z,77.67
2017-03-16T07:02:00.498Z,76.82
2017-03-16T07:03:10.747Z,76.63
2017-03-16T07:04:20.857Z,76.44
2017-03-16T07:05:31.121Z,76.91
2017-03-16T07:06:41.385Z,77.29
2017-03-16T07:07:51.640Z,77.1
2017-03-16T07:09:01.591Z,76.91
2017-03-16T07:10:12.247Z,76.15
2017-03-16T07:11:22.523Z,76.82
2017-03-16T07:12:32.466Z,76.82
2017-03-16T07:13:42.726Z,76.15
2017-03-16T07:14:52.672Z,76.82
2017-03-16T07:16:04.938Z,77.29
2017-03-16T07:17:15.197Z,76.34
2017-03-16T07:18:25.136Z,76.29
2017-03-16T07:19:35.401Z,75.72
2017-03-16T07:20:45.656Z,75.81
2017-03-16T07:21:55.912Z,76.48
2017-03-16T07:23:06.185Z,76.48
2017-03-16T07:24:16.444Z,76.57
2017-03-16T07:25:26.705Z,76.63
2017-03-16T07:26:36.958Z,76.91
2017-03-16T07:27:47.218Z,77.1
2017-03-16T07:28:57.482Z,77.2
2017-03-16T07:30:07.743Z,76.82
2017-03-16T07:31:17.994Z,76.25
2017-03-16T07:32:27.935Z,77.2
2017-03-16T07:33:37.873Z,77.2
2017-03-16T07:34:47.824Z,77.2
2017-03-16T07:35:57.445Z,76.82
2017-03-16T07:37:07.386Z,76.91
2017-03-16T07:38:17.655Z,77.48
2017-03-16T07:39:27.920Z,78.14
2017-03-16T07:40:37.550Z,77.48
2017-03-16T07:41:47.801Z,78.14
2017-03-16T07:42:57.743Z,78.42
2017-03-16T07:44:08.000Z,79.18
2017-03-16T07:45:18.278Z,79.09
2017-03-16T07:46:28.538Z,79.18
2017-03-16T07:47:38.482Z,80.04
2017-03-16T07:48:48.745Z,80.41
2017-03-16T07:49:58.377Z,81.36
2017-03-16T07:51:08.325Z,81.07
2017-03-16T07:52:18.580Z,80.13
2017-03-16T07:53:28.525Z,81.64
2017-03-16T07:54:38.786Z,81.55
2017-03-16T07:55:48.741Z,80.98
2017-03-16T07:56:59.000Z,80.88
2017-03-16T07:58:08.943Z,80.79
2017-03-16T07:59:19.204Z,80.69
2017-03-16T08:00:29.465Z,80.22
2017-03-16T08:01:39.405Z,80.22
2017-03-16T08:02:49.660Z,79.85
2017-03-16T08:03:59.606Z,80.13
2017-03-16T08:05:09.890Z,79.66
2017-03-16T08:06:19.838Z,80.04
2017-03-16T08:07:30.091Z,79.94
2017-03-16T08:08:40.355Z,79.94
2017-03-16T08:09:50.617Z,79.94
2017-03-16T08:11:00.744Z,80.13
2017-03-16T08:12:10.934Z,79.75
2017-03-16T08:13:21.182Z,79.98
2017-03-16T08:14:31.132Z,79.41
2017-03-16T08:15:41.083Z,79.22
2017-03-16T08:16:51.339Z,78.65
2017-03-16T08:18:01.603Z,78.75
2017-03-16T08:19:11.547Z,78.37
2017-03-16T08:20:21.806Z,77.99
2017-03-16T08:21:32.061Z,77.8
2017-03-16T08:22:42.313Z,77.61
2017-03-16T08:23:52.277Z,77.14
2017-03-16T08:25:02.532Z,76.61
2017-03-16T08:26:12.782Z,76.32
2017-03-16T08:27:23.035Z,75.95
2017-03-16T08:28:33.283Z,75.85
2017-03-16T08:29:43.543Z,76.04
2017-03-16T08:30:53.483Z,75.19
2017-03-16T08:32:03.738Z,74.81
2017-03-16T08:33:14.034Z,76.14
2017-03-16T08:34:24.283Z,75.28
2017-03-16T08:35:34.540Z,75.91
2017-03-16T08:36:44.830Z,76.67
2017-03-16T08:37:55.087Z,76.38
2017-03-16T08:39:05.025Z,77.33
2017-03-16T08:40:14.685Z,77.42
2017-03-16T08:41:24.946Z,77.39
2017-03-16T08:42:35.208Z,77.1
2017-03-16T08:43:45.461Z,77.29
2017-03-16T08:44:55.730Z,77.39
2017-03-16T08:46:05.675Z,77.1
2017-03-16T08:47:15.614Z,76.82
2017-03-16T08:48:25.868Z,77.1
2017-03-16T08:49:36.120Z,76.76
2017-03-16T08:50:46.063Z,76.72
2017-03-16T08:51:56.318Z,76.57
2017-03-16T08:53:05.629Z,77.04
2017-03-16T08:54:15.887Z,77.51
2017-03-16T08:55:26.139Z,77.42
2017-03-16T08:56:36.396Z,77.14
2017-03-16T08:57:46.648Z,77.33
2017-03-16T08:58:56.587Z,77.14
2017-03-16T09:00:06.843Z,77.23
2017-03-16T09:01:17.101Z,77.23
2017-03-16T09:02:27.356Z,77.51
2017-03-16T09:03:37.608Z,77.14
2017-03-16T09:04:47.549Z,77.14
2017-03-16T09:05:57.491Z,77.14
2017-03-16T09:07:07.118Z,76.38
2017-03-16T09:08:16.743Z,76.32
2017-03-16T09:09:26.686Z,76.04
2017-03-16T09:10:36.629Z,76.23
2017-03-16T09:11:46.889Z,75.28
2017-03-16T09:12:57.149Z,75.66
2017-03-16T09:14:07.098Z,74.52
2017-03-16T09:15:16.724Z,74.52
2017-03-16T09:16:26.672Z,74.15
2017-03-16T09:17:35.985Z,73.39
2017-03-16T09:18:46.249Z,73.3
2017-03-16T09:19:56.197Z,73.39
2017-03-16T09:21:06.452Z,73.86
2017-03-16T09:22:16.710Z,74.15
2017-03-16T09:23:26.653Z,75.38
2017-03-16T09:24:36.602Z,75.38
2017-03-16T09:25:46.857Z,75.19
2017-03-16T09:26:57.113Z,75.09
2017-03-16T09:28:07.369Z,75.19
2017-03-16T09:29:17.626Z,75.28
2017-03-16T09:30:27.570Z,74.62
2017-03-16T09:31:37.512Z,74.15
2017-03-16T09:32:47.769Z,73.77
2017-03-16T09:33:58.030Z,73.77
2017-03-16T09:35:07.660Z,73.39
2017-03-16T09:36:17.914Z,73.2
2017-03-16T09:37:28.166Z,73.2
2017-03-16T09:38:38.107Z,73.86
2017-03-16T09:39:47.744Z,75.09
2017-03-16T09:40:57.689Z,75.66
2017-03-16T09:42:07.946Z,75.85
2017-03-16T09:43:17.573Z,74.9
2017-03-16T09:44:27.824Z,75.76
2017-03-16T09:45:37.769Z,76.04
2017-03-16T09:46:48.024Z,75.66
2017-03-16T09:47:57.965Z,75.85
2017-03-16T09:49:08.229Z,75.28
2017-03-16T09:50:18.485Z,75.09
2017-03-16T09:51:28.748Z,75.47
2017-03-16T09:52:39.002Z,75.19
2017-03-16T09:53:49.254Z,75
2017-03-16T09:54:59.205Z,75.57
2017-03-16T09:56:09.150Z,75.09
2017-03-16T09:57:19.091Z,74.71
2017-03-16T09:58:29.344Z,73.9
2017-03-16T09:59:39.301Z,74.18
2017-03-16T10:00:49.563Z,73.43
2017-03-16T10:01:59.820Z,73.61
2017-03-16T10:03:10.080Z,73.33
2017-03-16T10:04:20.022Z,73.71
2017-03-16T10:05:30.274Z,73.27
2017-03-16T10:06:40.247Z,73.08
2017-03-16T10:07:49.871Z,71.66
2017-03-16T10:08:59.182Z,71
2017-03-16T10:10:09.125Z,70.84
2017-03-16T10:11:19.064Z,70.09
2017-03-16T10:12:29.327Z,69.42
2017-03-16T10:13:39.269Z,69.42
2017-03-16T10:14:49.531Z,69.23
2017-03-16T10:15:59.472Z,68.32
2017-03-16T10:17:09.421Z,67.56
2017-03-16T10:18:19.361Z,67.75
2017-03-16T10:19:29.299Z,66.89
2017-03-16T10:20:39.557Z,66.99
2017-03-16T10:21:49.501Z,66.55
2017-03-16T10:22:59.756Z,66.08
2017-03-16T10:24:10.021Z,65.88
2017-03-16T10:25:20.270Z,65.69
2017-03-16T10:26:30.524Z,65.41
2017-03-16T10:27:40.781Z,64.94
2017-03-16T10:28:50.722Z,65.69
2017-03-16T10:30:00.978Z,65.41
2017-03-16T10:31:11.236Z,64.94
2017-03-16T10:32:21.179Z,65.03
2017-03-16T10:33:31.122Z,65.31
2017-03-16T10:34:41.377Z,64.65
2017-03-16T10:35:51.040Z,63.89
2017-03-16T10:37:01.299Z,64.94
2017-03-16T10:38:11.245Z,64.84
2017-03-16T10:39:20.596Z,64.75
2017-03-16T10:40:30.536Z,63.98
2017-03-16T10:41:39.854Z,64.27
2017-03-16T10:42:50.110Z,65.03
2017-03-16T10:43:59.736Z,64.3
2017-03-16T10:45:09.992Z,63.73
2017-03-16T10:46:19.937Z,63.17
2017-03-16T10:47:29.876Z,63.92
2017-03-16T10:48:39.822Z,63.92
2017-03-16T10:49:49.765Z,63.54
2017-03-16T10:51:00.020Z,63.26
2017-03-16T10:52:10.283Z,62.97
2017-03-16T10:53:20.543Z,62.69
2017-03-16T10:54:30.482Z,62.97
2017-03-16T10:55:40.425Z,62.78
2017-03-16T10:56:50.058Z,62.97
2017-03-16T10:58:00.320Z,62.53
2017-03-16T10:59:10.270Z,62.12
2017-03-16T11:00:20.526Z,61.87
2017-03-16T11:01:30.794Z,62.15
2017-03-16T11:02:41.049Z,62.15
2017-03-16T11:03:51.310Z,61.58
2017-03-16T11:05:01.261Z,61.87
2017-03-16T11:06:11.213Z,62.81
2017-03-16T11:07:21.159Z,62.34
2017-03-16T11:08:31.415Z,61.68
2017-03-16T11:09:41.043Z,61.48
2017-03-16T11:10:51.327Z,61.29
2017-03-16T11:12:00.647Z,61.68
2017-03-16T11:13:10.586Z,62.72
2017-03-16T11:14:20.837Z,62.43
2017-03-16T11:15:31.095Z,61.87
2017-03-16T11:16:41.353Z,61.96
2017-03-16T11:17:51.298Z,61.61
2017-03-16T11:19:00.924Z,61.8
2017-03-16T11:20:11.178Z,60.75
2017-03-16T11:21:20.838Z,60.75
2017-03-16T11:22:31.104Z,60.21
2017-03-16T11:23:41.362Z,60.02
2017-03-16T11:24:50.679Z,59.17
2017-03-16T11:26:00.949Z,59.07
2017-03-16T11:27:11.209Z,58.79
2017-03-16T11:28:21.152Z,59.07
2017-03-16T11:29:31.097Z,59.45
2017-03-16T11:30:41.365Z,59.29
2017-03-16T11:31:51.310Z,59.01
2017-03-16T11:33:00.941Z,59.1
2017-03-16T11:34:10.885Z,59.1
2017-03-16T11:35:21.141Z,59.93
2017-03-16T11:36:31.091Z,60.88
2017-03-16T11:37:41.352Z,60.5
2017-03-16T11:38:50.984Z,61.35
2017-03-16T11:40:00.612Z,61.64
2017-03-16T11:41:10.558Z,61.74
2017-03-16T11:42:20.816Z,61.16
2017-03-16T11:43:31.079Z,61.07
2017-03-16T11:44:41.335Z,60.69
2017-03-16T11:45:51.274Z,60.63
2017-03-16T11:47:01.537Z,59.1
2017-03-16T11:48:11.485Z,59.58
2017-03-16T11:49:21.433Z,59.96
2017-03-16T11:50:31.066Z,59.29
2017-03-16T11:51:41.331Z,59.2
2017-03-16T11:52:51.274Z,59.2
2017-03-16T11:54:01.527Z,59.2
2017-03-16T11:55:11.791Z,58.91
2017-03-16T11:56:21.426Z,59.48
2017-03-16T11:57:31.373Z,58.72
2017-03-16T11:58:41.321Z,59.1
2017-03-16T11:59:50.642Z,59.58
2017-03-16T12:01:00.588Z,60.05
2017-03-16T12:02:10.846Z,59.86
2017-03-16T12:03:20.792Z,60.53
2017-03-16T12:04:31.045Z,60.53
2017-03-16T12:05:41.001Z,61.38
2017-03-16T12:06:51.269Z,61.67
2017-03-16T12:08:01.216Z,61.67
2017-03-16T12:09:11.481Z,61.58
2017-03-16T12:10:21.743Z,61.29
2017-03-16T12:11:31.694Z,61.38
2017-03-16T12:12:41.975Z,61.67
2017-03-16T12:13:52.236Z,61
2017-03-16T12:15:02.493Z,61.67
2017-03-16T12:16:12.758Z,61.19
2017-03-16T12:17:22.703Z,60.63
2017-03-16T12:18:32.653Z,60.53
2017-03-16T12:19:42.913Z,60.34
2017-03-16T12:20:53.171Z,60.24
2017-03-16T12:22:03.438Z,60.24
2017-03-16T12:23:13.696Z,60.27
2017-03-16T12:24:23.971Z,59.23
2017-03-16T12:25:33.919Z,59.23
2017-03-16T12:26:43.862Z,59.13
2017-03-16T12:27:54.128Z,59.03
2017-03-16T12:29:04.392Z,60.56
2017-03-16T12:30:14.651Z,59.8
2017-03-16T12:31:24.918Z,59.7
2017-03-16T12:32:35.178Z,59.23
2017-03-16T12:33:45.128Z,59.32
2017-03-16T12:34:55.077Z,59.23
2017-03-16T12:36:05.023Z,59.32
2017-03-16T12:37:14.691Z,60.08
2017-03-16T12:38:24.637Z,60.94
2017-03-16T12:39:34.580Z,61.77
2017-03-16T12:40:44.528Z,62.53
2017-03-16T12:41:54.791Z,63.01
2017-03-16T12:43:05.048Z,63.76
2017-03-16T12:44:14.993Z,63.83
2017-03-16T12:45:24.312Z,64.78
2017-03-16T12:46:34.264Z,64.87
2017-03-16T12:47:44.527Z,65.16
2017-03-16T12:48:54.788Z,65.16
2017-03-16T12:50:05.046Z,65.73
2017-03-16T12:51:15.308Z,65.41
2017-03-16T12:52:25.569Z,66.27
2017-03-16T12:53:35.520Z,65.7
2017-03-16T12:54:45.782Z,64.87
2017-03-16T12:55:55.733Z,65.06
2017-03-16T12:57:05.993Z,64.87
2017-03-16T12:58:16.252Z,65.06
2017-03-16T12:59:26.195Z,64.69
2017-03-16T13:00:36.461Z,64.11
2017-03-16T13:01:46.726Z,64.4
2017-03-16T13:02:56.982Z,64.87
2017-03-16T13:04:07.241Z,64.78
2017-03-16T13:05:17.509Z,65.06
2017-03-16T13:06:27.141Z,65.16
2017-03-16T13:07:36.768Z,64.5
2017-03-16T13:08:47.028Z,64.5
2017-03-16T13:09:57.286Z,64.4
2017-03-16T13:11:07.235Z,64.21
2017-03-16T13:12:17.183Z,62.59
2017-03-16T13:13:27.441Z,62.91
2017-03-16T13:14:37.697Z,62.43
2017-03-16T13:15:47.645Z,61.77
2017-03-16T13:16:57.907Z,61.67
2017-03-16T13:18:07.539Z,61.7
2017-03-16T13:19:17.481Z,61.42
2017-03-16T13:20:27.424Z,60.66
2017-03-16T13:21:37.685Z,60.46
2017-03-16T13:22:47.640Z,59.74
2017-03-16T13:23:57.904Z,59.35
2017-03-16T13:25:07.535Z,59.54
2017-03-16T13:26:17.484Z,59.92
2017-03-16T13:27:27.427Z,58.97
2017-03-16T13:28:37.685Z,59.35
2017-03-16T13:29:47.945Z,59.64
2017-03-16T13:30:58.202Z,59.28
2017-03-16T13:32:08.152Z,59.38
2017-03-16T13:33:18.098Z,57.6
2017-03-16T13:34:28.357Z,57.12
2017-03-16T13:35:38.623Z,57.7
2017-03-16T13:36:48.884Z,56.93
2017-03-16T13:37:59.147Z,57.22
2017-03-16T13:39:09.408Z,55.41
2017-03-16T13:40:19.670Z,55.98
2017-03-16T13:41:30.090Z,55.31
2017-03-16T13:42:40.074Z,57.19
2017-03-16T13:43:50.342Z,57.67
2017-03-16T13:45:00.605Z,56.33
2017-03-16T13:46:10.868Z,57.86
2017-03-16T13:47:20.501Z,58.52
2017-03-16T13:48:30.447Z,58.52
2017-03-16T13:49:40.706Z,58.33
2017-03-16T13:50:50.687Z,57.09
2017-03-16T13:52:00.633Z,57.76
2017-03-16T13:53:12.271Z,57.95
2017-03-16T13:54:22.220Z,57.95
2017-03-16T13:55:32.489Z,58.04
2017-03-16T13:56:42.774Z,58.62
2017-03-16T13:57:53.043Z,58.14
2017-03-16T13:59:02.991Z,57.76
2017-03-16T14:00:13.254Z,57.54
2017-03-16T14:01:23.512Z,57.67
2017-03-16T14:02:33.771Z,57.28
2017-03-16T14:03:44.035Z,57.38
2017-03-16T14:04:53.992Z,57
2017-03-16T14:06:03.942Z,57.09
2017-03-16T14:07:13.888Z,57.76
2017-03-16T14:08:24.156Z,57.95
2017-03-16T14:09:34.418Z,58.62
2017-03-16T14:10:44.686Z,58.62
2017-03-16T14:11:54.953Z,58.72
2017-03-16T14:13:05.215Z,59
2017-03-16T14:14:15.170Z,59
2017-03-16T14:15:25.427Z,59.09
2017-03-16T14:16:35.387Z,59.48
2017-03-16T14:17:45.650Z,60.43
2017-03-16T14:18:55.913Z,60.14
2017-03-16T14:20:06.179Z,59.95
2017-03-16T14:21:16.160Z,59.67
2017-03-16T14:22:26.424Z,60.72
2017-03-16T14:23:36.690Z,60.52
2017-03-16T14:24:46.640Z,60.52
2017-03-16T14:25:56.586Z,60.52
2017-03-16T14:27:06.221Z,60.72
2017-03-16T14:28:16.513Z,60.97
2017-03-16T14:29:26.460Z,61.54
2017-03-16T14:30:36.721Z,61.45
2017-03-16T14:31:46.987Z,61.54
2017-03-16T14:32:57.248Z,61.64
2017-03-16T14:34:07.510Z,61.64
2017-03-16T14:35:17.773Z,61.64
2017-03-16T14:36:28.036Z,61.25
2017-03-16T14:37:38.297Z,60.52
2017-03-16T14:38:48.246Z,60.33
2017-03-16T14:39:58.503Z,59.28
2017-03-16T14:41:08.449Z,58.36
2017-03-16T14:42:18.713Z,58.65
2017-03-16T14:43:28.973Z,57.79
2017-03-16T14:44:39.246Z,58.36
2017-03-16T14:45:49.513Z,57.82
2017-03-16T14:46:59.772Z,57.92
2017-03-16T14:48:10.041Z,58.55
2017-03-16T14:49:19.680Z,58.46
2017-03-16T14:50:29.630Z,59.28
2017-03-16T14:51:39.893Z,59.48
2017-03-16T14:52:50.163Z,59.31
2017-03-16T14:54:00.423Z,59
2017-03-16T14:55:10.682Z,59.41
2017-03-16T14:56:20.954Z,58.65
2017-03-16T14:57:31.217Z,57.53
2017-03-16T14:58:41.481Z,57.24
2017-03-16T14:59:51.779Z,56.13
2017-03-16T15:01:01.729Z,54.85
2017-03-16T15:02:11.994Z,53.61
2017-03-16T15:03:22.260Z,53.7
2017-03-16T15:04:32.519Z,53.41
2017-03-16T15:05:42.784Z,52.26